Terminal Aerodrome Forecast
Issued by NWS

Home | Current Version | Previous Version | Text Only | Print | Product List | Glossary Off
Versions: 1 2 3 4 5 6 7 8 9 10 11 12 13 14

266
FTUS43 KBIS 021136
TAFDIK
TAF
KDIK 021136Z 0212/0312 27008KT P6SM BKN090
     FM021500 30014KT P6SM BKN080
     FM021700 32013G21KT P6SM SCT080
     FM022000 35013G22KT P6SM SCT090
     FM030000 02010KT P6SM FEW250
     FM030400 VRB04KT P6SM FEW250=

USA.gov is the U.S. government's official web portal to all federal, state and local government web resources and services.